createdAt,value
2019-01-28T00:02:01.682Z,158.60
2019-01-28T00:04:31.766Z,158.53
2019-01-28T00:07:03.146Z,170.27
2019-01-28T00:09:33.778Z,159.30
2019-01-28T00:12:03.867Z,161.67
2019-01-28T00:14:55.769Z,162.53
2019-01-28T00:17:25.973Z,175.53
2019-01-28T00:19:55.933Z,165.17
2019-01-28T00:22:26.256Z,180.47
2019-01-28T00:24:56.174Z,163.13
2019-01-28T00:27:26.495Z,157.13
2019-01-28T00:32:47.112Z,160.17
2019-01-28T00:35:18.190Z,168.77
2019-01-28T00:37:48.819Z,184.13
2019-01-28T00:40:18.888Z,178.90
2019-01-28T00:42:49.229Z,179.47
2019-01-28T00:45:20.169Z,179.03
2019-01-28T00:47:50.226Z,175.03
2019-01-28T00:50:20.232Z,187.37
2019-01-28T00:55:46.962Z,179.53
2019-01-28T00:58:17.082Z,185.73
2019-01-28T01:00:47.202Z,186.80
2019-01-28T01:03:17.422Z,185.83
2019-01-28T01:05:48.363Z,188.83
2019-01-28T01:08:18.685Z,192.80
2019-01-28T01:10:48.630Z,193.23
2019-01-28T01:13:18.821Z,199.87
2019-01-28T01:15:51.020Z,194.60
2019-01-28T01:18:21.112Z,199.67
2019-01-28T01:20:52.974Z,190.07
2019-01-28T01:23:23.151Z,202.73
2019-01-28T01:25:54.230Z,203.93
2019-01-28T01:28:24.556Z,208.43
2019-01-28T01:30:54.573Z,196.50
2019-01-28T01:33:24.795Z,204.80
2019-01-28T01:35:56.039Z,196.20
2019-01-28T01:38:26.263Z,198.90
2019-01-28T01:40:56.689Z,210.13
2019-01-28T01:46:23.563Z,191.70
2019-01-28T01:48:53.732Z,202.53
2019-01-28T01:51:23.926Z,197.17
2019-01-28T01:53:54.013Z,203.70
2019-01-28T01:56:26.181Z,210.63
2019-01-28T01:58:56.607Z,215.13
2019-01-28T02:01:26.742Z,202.53
2019-01-28T02:03:57.052Z,192.13
2019-01-28T02:06:28.200Z,191.90
2019-01-28T02:08:58.446Z,197.00
2019-01-28T02:11:28.433Z,197.00
2019-01-28T02:13:58.655Z,202.07
2019-01-28T02:16:30.823Z,197.80
2019-01-28T02:19:01.043Z,189.03
2019-01-28T02:21:31.146Z,191.97
2019-01-28T02:24:01.389Z,194.40
2019-01-28T02:26:32.529Z,190.17
2019-01-28T02:29:08.098Z,179.57
2019-01-28T02:31:38.094Z,189.63
2019-01-28T02:34:08.317Z,191.03
2019-01-28T02:36:39.559Z,185.67
2019-01-28T02:39:09.885Z,198.87
2019-01-28T02:41:40.312Z,202.80
2019-01-28T02:44:10.740Z,188.33
2019-01-28T02:46:41.888Z,189.57
2019-01-28T02:49:12.417Z,191.00
2019-01-28T02:51:42.516Z,181.10
2019-01-28T02:54:12.897Z,176.40
2019-01-28T02:56:44.425Z,181.23
2019-01-28T02:59:14.628Z,200.17
2019-01-28T03:01:44.670Z,173.20
2019-01-28T03:04:14.902Z,180.50
2019-01-28T03:06:46.170Z,174.83
2019-01-28T03:09:16.435Z,177.93
2019-01-28T03:11:46.659Z,194.20
2019-01-28T03:14:16.823Z,186.77
2019-01-28T03:17:09.742Z,187.13
2019-01-28T03:19:40.295Z,171.70
2019-01-28T03:22:10.283Z,174.73
2019-01-28T03:24:40.503Z,198.07
2019-01-28T03:27:10.621Z,176.40
2019-01-28T03:29:41.148Z,191.03
2019-01-28T03:32:11.372Z,176.43
2019-01-28T03:34:41.695Z,178.13
2019-01-28T03:37:11.715Z,171.50
2019-01-28T03:39:42.138Z,169.90
2019-01-28T03:42:12.158Z,188.20
2019-01-28T03:44:42.231Z,182.93
2019-01-28T03:47:12.191Z,168.03
2019-01-28T03:49:43.378Z,180.20
2019-01-28T03:52:14.817Z,187.97
2019-01-28T03:54:44.956Z,176.53
2019-01-28T03:57:15.128Z,176.93
2019-01-28T03:59:45.481Z,176.87
2019-01-28T04:02:15.563Z,173.47
2019-01-28T04:04:45.684Z,162.87
2019-01-28T04:07:15.740Z,167.83
2019-01-28T04:09:45.869Z,148.67
2019-01-28T04:12:15.769Z,144.03
2019-01-28T04:14:46.072Z,133.87
2019-01-28T04:17:16.942Z,130.90
2019-01-28T04:19:47.019Z,127.07
2019-01-28T04:22:18.507Z,128.27
2019-01-28T04:24:48.589Z,119.10
2019-01-28T04:27:18.818Z,122.70
2019-01-28T04:29:49.141Z,113.07
2019-01-28T04:32:19.255Z,109.00
2019-01-28T04:34:49.579Z,108.37
2019-01-28T04:37:19.731Z,109.80
2019-01-28T04:39:50.046Z,93.00
2019-01-28T04:42:21.805Z,94.47
2019-01-28T04:44:52.129Z,95.43
2019-01-28T04:47:23.784Z,80.03
2019-01-28T04:49:57.386Z,89.47
2019-01-28T04:52:27.504Z,87.23
2019-01-28T04:55:08.938Z,79.20
2019-01-28T05:00:27.032Z,83.30
2019-01-28T05:02:57.097Z,79.07
2019-01-28T05:05:28.513Z,79.17
2019-01-28T05:08:17.784Z,79.07
2019-01-28T05:10:48.212Z,83.13
2019-01-28T05:13:18.302Z,81.67
2019-01-28T05:15:49.572Z,85.73
2019-01-28T05:18:19.532Z,87.50
2019-01-28T05:20:49.713Z,79.93
2019-01-28T05:23:20.273Z,91.23
2019-01-28T05:25:51.592Z,79.60
2019-01-28T05:28:21.610Z,85.57
2019-01-28T05:30:51.826Z,78.60
2019-01-28T05:33:21.846Z,74.17
2019-01-28T05:35:54.765Z,74.97
2019-01-28T05:38:24.575Z,80.47
2019-01-28T05:40:55.003Z,81.00
2019-01-28T05:43:25.199Z,74.83
2019-01-28T05:45:56.638Z,83.60
2019-01-28T05:48:45.916Z,89.53
2019-01-28T05:51:16.082Z,82.30
2019-01-28T05:56:42.050Z,86.47
2019-01-28T05:59:23.719Z,83.13
2019-01-28T06:01:53.742Z,80.07
2019-01-28T06:04:23.699Z,79.87
2019-01-28T06:06:53.675Z,87.43
2019-01-28T06:09:23.563Z,86.63
2019-01-28T06:12:31.603Z,83.80
2019-01-28T06:15:01.618Z,85.73
2019-01-28T06:17:52.549Z,95.27
2019-01-28T06:20:25.821Z,83.20
2019-01-28T06:22:57.538Z,97.47
2019-01-28T06:28:28.387Z,95.70
2019-01-28T06:30:58.916Z,83.53
2019-01-28T06:33:29.151Z,89.60
2019-01-28T06:35:59.735Z,87.73
2019-01-28T06:38:29.955Z,86.20
2019-01-28T06:41:01.201Z,88.13
2019-01-28T06:43:31.425Z,98.50
2019-01-28T06:46:01.554Z,83.23
2019-01-28T06:48:31.813Z,85.40
2019-01-28T06:51:03.114Z,96.37
2019-01-28T06:53:33.655Z,88.03
2019-01-28T06:56:05.401Z,94.17
2019-01-28T06:58:35.928Z,84.30
2019-01-28T07:01:07.414Z,93.07
2019-01-28T07:03:37.703Z,87.97
2019-01-28T07:06:07.955Z,159.73
2019-01-28T07:08:38.321Z,118.37
2019-01-28T07:11:09.498Z,119.33
2019-01-28T07:13:39.730Z,94.83
2019-01-28T07:16:09.877Z,95.70
2019-01-28T07:18:41.697Z,100.67
2019-01-28T07:21:13.965Z,103.93
2019-01-28T07:23:44.187Z,96.27
2019-01-28T07:26:14.339Z,89.83
2019-01-28T07:28:44.530Z,99.40
2019-01-28T07:31:15.777Z,96.60
2019-01-28T07:33:45.895Z,102.00
2019-01-28T07:36:15.999Z,108.07
2019-01-28T07:38:46.467Z,94.83
2019-01-28T07:41:17.889Z,105.57
2019-01-28T07:43:48.141Z,110.93
2019-01-28T07:46:18.129Z,120.47
2019-01-28T07:48:48.428Z,118.40
2019-01-28T07:51:19.703Z,112.43
2019-01-28T07:53:50.225Z,136.50
2019-01-28T07:56:20.401Z,128.23
2019-01-28T07:58:50.603Z,118.57
2019-01-28T08:01:22.045Z,106.87
2019-01-28T08:03:52.295Z,117.20
2019-01-28T08:06:22.191Z,107.03
2019-01-28T08:08:52.173Z,117.40
2019-01-28T08:11:23.458Z,130.47
2019-01-28T08:13:53.537Z,132.53
2019-01-28T08:16:23.695Z,132.43
2019-01-28T08:18:53.683Z,129.90
2019-01-28T08:21:26.046Z,128.87
2019-01-28T08:23:56.173Z,143.57
2019-01-28T08:26:26.391Z,143.10
2019-01-28T08:28:56.506Z,142.50
2019-01-28T08:31:27.695Z,128.67
2019-01-28T08:33:57.668Z,146.83
2019-01-28T08:36:27.787Z,141.17
2019-01-28T08:38:57.916Z,156.17
2019-01-28T08:41:29.001Z,143.17
2019-01-28T08:43:59.239Z,156.60
2019-01-28T08:46:30.385Z,137.67
2019-01-28T08:49:00.693Z,142.93
2019-01-28T08:51:31.724Z,139.43
2019-01-28T08:54:01.971Z,138.37
2019-01-28T08:56:32.261Z,152.43
2019-01-28T08:59:02.445Z,147.23
2019-01-28T09:01:33.719Z,133.67
2019-01-28T09:04:03.881Z,142.47
2019-01-28T09:06:33.929Z,138.90
2019-01-28T09:09:05.690Z,124.13
2019-01-28T09:11:37.311Z,131.00
2019-01-28T09:14:07.771Z,132.83
2019-01-28T09:16:37.686Z,124.60
2019-01-28T09:19:08.041Z,166.27
2019-01-28T09:21:40.105Z,147.07
2019-01-28T09:24:10.601Z,137.03
2019-01-28T09:26:40.610Z,134.90
2019-01-28T09:29:11.015Z,131.60
2019-01-28T09:32:03.182Z,123.20
2019-01-28T09:34:33.335Z,123.37
2019-01-28T09:37:03.320Z,146.50
2019-01-28T09:39:33.539Z,156.53
2019-01-28T09:42:04.889Z,151.90
2019-01-28T09:44:35.074Z,138.70
2019-01-28T09:47:05.333Z,135.77
2019-01-28T09:49:35.557Z,137.73
2019-01-28T09:52:06.699Z,150.20
2019-01-28T09:54:38.458Z,136.53
2019-01-28T09:57:08.511Z,130.17
2019-01-28T09:59:38.834Z,114.27
2019-01-28T10:02:09.901Z,143.43
2019-01-28T10:04:40.092Z,134.13
2019-01-28T10:07:10.077Z,117.70
2019-01-28T10:09:41.324Z,112.97
2019-01-28T10:12:12.343Z,130.07
2019-01-28T10:14:42.526Z,118.30
2019-01-28T10:17:12.603Z,118.77
2019-01-28T10:19:42.720Z,104.83
2019-01-28T10:22:14.818Z,123.20
2019-01-28T10:24:45.138Z,121.63
2019-01-28T10:27:15.051Z,116.97
2019-01-28T10:29:45.554Z,116.57
2019-01-28T10:32:16.697Z,118.37
2019-01-28T10:34:47.978Z,110.73
2019-01-28T10:37:18.064Z,108.47
2019-01-28T10:39:48.171Z,100.00
2019-01-28T10:42:19.223Z,108.13
2019-01-28T10:44:49.651Z,115.23
2019-01-28T10:47:19.667Z,118.10
2019-01-28T10:49:49.891Z,118.80
2019-01-28T10:52:21.032Z,109.73
2019-01-28T10:54:51.290Z,113.43
2019-01-28T10:57:21.271Z,108.27
2019-01-28T10:59:51.598Z,103.63
2019-01-28T11:02:22.737Z,110.77
2019-01-28T11:04:53.269Z,117.03
2019-01-28T11:07:23.286Z,116.33
2019-01-28T11:09:53.777Z,114.50
2019-01-28T11:12:24.798Z,117.03
2019-01-28T11:14:55.414Z,108.47
2019-01-28T11:17:25.689Z,112.63
2019-01-28T11:19:56.007Z,120.30
2019-01-28T11:22:28.362Z,119.00
2019-01-28T11:24:58.791Z,114.90
2019-01-28T11:27:29.042Z,129.33
2019-01-28T11:29:59.685Z,125.07
2019-01-28T11:32:31.168Z,126.63
2019-01-28T11:35:01.464Z,122.93
2019-01-28T11:37:31.800Z,133.70
2019-01-28T11:40:02.008Z,130.00
2019-01-28T11:43:02.641Z,128.23
2019-01-28T11:45:43.175Z,136.47
2019-01-28T11:48:13.137Z,128.87
2019-01-28T11:50:56.020Z,130.57
2019-01-28T11:53:26.669Z,127.80
2019-01-28T11:55:56.759Z,136.37
2019-01-28T11:58:27.248Z,127.73
2019-01-28T12:01:02.048Z,116.37
2019-01-28T12:03:32.266Z,125.83
2019-01-28T12:06:05.049Z,115.33
2019-01-28T12:08:38.273Z,129.17
2019-01-28T12:11:09.279Z,115.87
2019-01-28T12:13:39.843Z,122.83
2019-01-28T12:19:05.372Z,102.07
2019-01-28T12:21:35.807Z,125.63
2019-01-28T12:24:05.981Z,119.57
2019-01-28T12:26:37.473Z,118.23
2019-01-28T12:29:07.559Z,97.47
2019-01-28T12:31:37.752Z,81.83
2019-01-28T12:34:28.772Z,100.03
2019-01-28T12:36:59.124Z,102.93
2019-01-28T12:39:29.740Z,102.20
2019-01-28T12:42:01.330Z,96.87
2019-01-28T12:44:32.512Z,96.80
2019-01-28T12:47:03.710Z,97.80
2019-01-28T12:49:33.602Z,101.07
2019-01-28T12:52:03.926Z,96.13
2019-01-28T12:54:34.023Z,86.30
2019-01-28T12:57:04.246Z,82.07
2019-01-28T12:59:37.541Z,87.43
2019-01-28T13:02:07.689Z,79.60
2019-01-28T13:04:42.086Z,78.53
2019-01-28T13:07:13.647Z,79.20
2019-01-28T13:09:43.677Z,67.37
2019-01-28T13:15:12.328Z,64.03
2019-01-28T13:17:43.604Z,62.23
2019-01-28T13:20:13.721Z,69.73
2019-01-28T13:22:45.584Z,66.10
2019-01-28T13:25:25.158Z,61.90
2019-01-28T13:27:55.136Z,54.00
2019-01-28T13:30:28.434Z,47.10
2019-01-28T13:33:00.353Z,45.00
2019-01-28T13:35:30.280Z,36.27
2019-01-28T13:38:00.427Z,36.97
2019-01-28T13:40:30.445Z,36.67
2019-01-28T13:43:00.768Z,32.00
2019-01-28T13:45:34.063Z,29.33
2019-01-28T13:48:04.822Z,32.37
2019-01-28T13:50:34.818Z,28.40
2019-01-28T13:53:07.189Z,22.73
2019-01-28T13:55:37.309Z,31.70
2019-01-28T13:58:07.527Z,28.60
2019-01-28T14:00:37.851Z,22.90
2019-01-28T14:03:08.175Z,27.03
2019-01-28T14:05:38.168Z,27.13
2019-01-28T14:08:10.054Z,27.03
2019-01-28T14:10:40.173Z,21.57
2019-01-28T14:13:10.394Z,21.17
2019-01-28T14:15:41.564Z,19.47
2019-01-28T14:18:11.770Z,20.57
2019-01-28T14:20:42.015Z,18.37
2019-01-28T14:23:12.203Z,16.30
2019-01-28T14:25:44.268Z,11.40
2019-01-28T14:28:14.489Z,14.53
2019-01-28T14:30:45.882Z,12.33
2019-01-28T14:36:12.701Z,11.07
2019-01-28T14:38:44.258Z,11.73
2019-01-28T14:41:15.910Z,7.93
2019-01-28T14:43:46.878Z,6.10
2019-01-28T14:46:19.017Z,5.70
2019-01-28T14:48:49.537Z,3.70
2019-01-28T14:51:19.765Z,3.70
2019-01-28T14:53:50.091Z,3.63
2019-01-28T14:56:21.233Z,4.60
2019-01-28T14:58:51.456Z,7.20
2019-01-28T15:01:21.472Z,3.30
2019-01-28T15:03:51.617Z,5.30
2019-01-28T15:06:22.755Z,3.73
2019-01-28T15:08:52.969Z,3.50
2019-01-28T15:11:22.995Z,3.47
2019-01-28T15:13:53.217Z,7.97
2019-01-28T15:16:25.366Z,5.37
2019-01-28T15:18:55.689Z,4.20
2019-01-28T15:21:25.706Z,4.63
2019-01-28T15:23:58.589Z,7.10
2019-01-28T15:26:33.888Z,5.23
2019-01-28T15:29:05.744Z,4.00
2019-01-28T15:31:35.910Z,3.53
2019-01-28T15:34:06.337Z,6.07
2019-01-28T15:36:37.479Z,5.17
2019-01-28T15:39:10.023Z,4.63
2019-01-28T15:41:40.381Z,5.87
2019-01-28T15:44:10.568Z,6.30
2019-01-28T15:46:41.849Z,6.07
2019-01-28T15:49:12.297Z,5.27
2019-01-28T15:51:42.293Z,4.33
2019-01-28T15:54:12.514Z,5.03
2019-01-28T15:56:42.769Z,4.43
2019-01-28T15:59:12.754Z,7.03
2019-01-28T16:01:42.836Z,4.67
2019-01-28T16:04:14.470Z,8.33
2019-01-28T16:06:45.433Z,6.50
2019-01-28T16:09:15.334Z,6.43
2019-01-28T16:11:45.276Z,6.03
2019-01-28T16:14:15.179Z,6.67
2019-01-28T16:16:46.146Z,6.00
2019-01-28T16:19:16.046Z,9.07
2019-01-28T16:21:45.916Z,10.17
2019-01-28T16:24:15.749Z,12.17
2019-01-28T16:26:47.599Z,9.63
2019-01-28T16:29:17.393Z,7.60
2019-01-28T16:31:47.717Z,9.63
2019-01-28T16:34:18.477Z,9.23
2019-01-28T16:36:49.698Z,13.63
2019-01-28T16:39:19.714Z,12.80
2019-01-28T16:41:50.039Z,11.90
2019-01-28T16:44:21.797Z,11.57
2019-01-28T16:46:55.706Z,14.57
2019-01-28T16:49:26.033Z,15.37
2019-01-28T16:51:56.152Z,14.23
2019-01-28T16:54:26.197Z,11.50
2019-01-28T16:56:56.388Z,11.73
2019-01-28T16:59:26.405Z,11.53
2019-01-28T17:01:56.294Z,15.03
2019-01-28T17:04:26.143Z,12.10
2019-01-28T17:06:56.028Z,14.60
2019-01-28T17:09:25.931Z,11.97
2019-01-28T17:11:55.882Z,14.43
2019-01-28T17:14:25.724Z,14.03
2019-01-28T17:16:55.859Z,12.90
2019-01-28T17:19:28.818Z,12.77
2019-01-28T17:21:59.066Z,12.43
2019-01-28T17:24:29.486Z,17.00
2019-01-28T17:27:03.731Z,11.93
2019-01-28T17:29:34.146Z,13.97
2019-01-28T17:32:04.069Z,14.80
2019-01-28T17:34:34.240Z,15.43
2019-01-28T17:37:04.184Z,15.83
2019-01-28T17:39:34.378Z,11.50
2019-01-28T17:42:04.395Z,10.00
2019-01-28T17:44:34.924Z,9.98
2019-01-28T17:47:05.234Z,12.40
2019-01-28T17:49:36.492Z,9.73
2019-01-28T17:52:06.949Z,11.47
2019-01-28T17:54:37.275Z,7.37
2019-01-28T17:57:11.357Z,12.30
2019-01-28T17:59:41.482Z,12.67
2019-01-28T18:02:11.418Z,11.30
2019-01-28T18:04:43.230Z,9.60
2019-01-28T18:07:14.293Z,9.90
2019-01-28T18:09:44.615Z,9.73
2019-01-28T18:12:14.783Z,10.27
2019-01-28T18:14:45.099Z,7.33
2019-01-28T18:17:16.091Z,13.97
2019-01-28T18:19:56.845Z,8.77
2019-01-28T18:22:28.458Z,6.20
2019-01-28T18:24:58.886Z,7.70
2019-01-28T18:27:29.994Z,6.20
2019-01-28T18:30:00.249Z,5.70
2019-01-28T18:32:35.053Z,8.07
2019-01-28T18:35:08.748Z,6.07
2019-01-28T18:37:39.075Z,7.67
2019-01-28T18:40:12.776Z,9.83
2019-01-28T18:42:42.999Z,14.37
2019-01-28T18:45:18.399Z,10.87
2019-01-28T18:47:46.957Z,12.33
2019-01-28T18:50:22.495Z,13.00
2019-01-28T18:52:53.030Z,16.37
2019-01-28T18:55:23.556Z,18.53
2019-01-28T18:57:53.648Z,16.97
2019-01-28T19:00:29.771Z,14.53
2019-01-28T19:03:00.167Z,16.60
2019-01-28T19:05:49.196Z,15.43
2019-01-28T19:08:30.262Z,15.53
2019-01-28T19:11:10.816Z,15.80
2019-01-28T19:13:58.674Z,18.37
2019-01-28T19:16:36.372Z,28.53
2019-01-28T19:19:07.820Z,25.70
2019-01-28T19:21:39.610Z,24.23
2019-01-28T19:24:09.828Z,26.17
2019-01-28T19:26:42.495Z,15.57
2019-01-28T19:29:13.119Z,10.13
2019-01-28T19:31:43.422Z,9.57
2019-01-28T19:34:13.761Z,13.43
2019-01-28T19:36:45.441Z,11.63
2019-01-28T19:39:26.593Z,12.90
2019-01-28T19:41:56.793Z,11.93
2019-01-28T19:44:27.316Z,11.67
2019-01-28T19:46:59.179Z,12.33
2019-01-28T19:49:29.250Z,13.67
2019-01-28T19:52:01.292Z,16.63
2019-01-28T19:54:31.510Z,13.03
2019-01-28T19:57:04.179Z,12.77
2019-01-28T19:59:35.843Z,13.20
2019-01-28T20:02:16.954Z,14.63
2019-01-28T20:04:48.393Z,13.17
2019-01-28T20:07:21.340Z,12.17
2019-01-28T20:09:53.218Z,11.97
2019-01-28T20:12:23.338Z,9.07
2019-01-28T20:14:55.813Z,10.77
2019-01-28T20:17:26.239Z,10.17
2019-01-28T20:19:57.909Z,15.47
2019-01-28T20:22:28.404Z,17.93
2019-01-28T20:24:58.440Z,11.53
2019-01-28T20:27:29.128Z,76.13
2019-01-28T20:30:01.162Z,25.13
2019-01-28T20:32:31.769Z,17.47
2019-01-28T20:35:01.708Z,12.17
2019-01-28T20:37:33.032Z,15.27
2019-01-28T20:40:03.047Z,15.57
2019-01-28T20:42:33.783Z,12.00
2019-01-28T20:45:05.335Z,12.33
2019-01-28T20:47:36.796Z,11.23
2019-01-28T20:50:10.825Z,13.67
2019-01-28T20:52:43.453Z,16.90
2019-01-28T20:55:13.518Z,20.47
2019-01-28T20:57:44.956Z,23.90
2019-01-28T21:00:20.910Z,23.47
2019-01-28T21:02:51.345Z,17.57
2019-01-28T21:05:33.565Z,22.33
2019-01-28T21:08:14.157Z,24.67
2019-01-28T21:10:44.857Z,86.73
2019-01-28T21:16:10.664Z,24.53
2019-01-28T21:18:41.023Z,16.50
2019-01-28T21:21:11.011Z,18.17
2019-01-28T21:23:41.333Z,19.90
2019-01-28T21:26:14.527Z,15.57
2019-01-28T21:28:44.949Z,16.40
2019-01-28T21:31:15.841Z,13.80
2019-01-28T21:33:46.007Z,35.13
2019-01-28T21:36:24.524Z,34.00
2019-01-28T21:41:50.465Z,18.67
2019-01-28T21:44:22.121Z,20.27
2019-01-28T21:46:54.926Z,24.43
2019-01-28T21:52:05.719Z,21.97
2019-01-28T21:54:36.015Z,23.17
2019-01-28T21:57:07.366Z,23.40
2019-01-28T21:59:37.647Z,22.40
2019-01-28T22:02:07.607Z,23.57
2019-01-28T22:04:38.027Z,29.23
2019-01-28T22:07:09.274Z,25.80
2019-01-28T22:12:34.807Z,20.47
2019-01-28T22:15:13.321Z,24.87
2019-01-28T22:17:43.443Z,23.50
2019-01-28T22:20:18.067Z,22.27
2019-01-28T22:22:48.378Z,21.40
2019-01-28T22:25:21.702Z,27.57
2019-01-28T22:27:57.229Z,21.73
2019-01-28T22:30:44.417Z,18.50
2019-01-28T22:33:16.796Z,19.27
2019-01-28T22:35:48.377Z,22.03
2019-01-28T22:38:19.931Z,19.50
2019-01-28T22:40:50.151Z,18.73
2019-01-28T22:43:20.375Z,16.10
2019-01-28T22:45:51.826Z,22.57
2019-01-28T22:48:22.047Z,18.17
2019-01-28T22:50:52.433Z,27.50
2019-01-28T22:53:22.498Z,19.60
2019-01-28T22:55:53.935Z,22.93
2019-01-28T22:58:24.059Z,18.60
2019-01-28T23:01:17.942Z,19.47
2019-01-28T23:04:08.946Z,25.97
2019-01-28T23:06:39.270Z,22.37
2019-01-28T23:09:10.017Z,24.10
2019-01-28T23:11:40.739Z,19.77
2019-01-28T23:14:10.688Z,25.43
2019-01-28T23:16:42.124Z,20.50
2019-01-28T23:19:12.049Z,21.70
2019-01-28T23:21:42.034Z,25.50
2019-01-28T23:24:12.361Z,21.87
2019-01-28T23:26:43.604Z,20.30
2019-01-28T23:29:13.827Z,20.83
2019-01-28T23:31:43.948Z,21.67
2019-01-28T23:34:14.067Z,21.53
2019-01-28T23:36:45.416Z,20.40
2019-01-28T23:39:17.173Z,19.17
2019-01-28T23:41:47.189Z,19.67
2019-01-28T23:44:17.308Z,21.77
2019-01-28T23:46:48.455Z,26.73
2019-01-28T23:49:18.571Z,19.23
2019-01-28T23:51:48.690Z,21.60
2019-01-28T23:54:18.710Z,17.93
2019-01-28T23:56:50.084Z,23.27
2019-01-28T23:59:20.073Z,21.80
